sensor_id;sensor_type;location;lat;lon;timestamp;temperature;humidity
24744;DHT22;12844;52.110;5.548;2024-02-23T00:01:40;18.90;56.50
24744;DHT22;12844;52.110;5.548;2024-02-23T00:04:06;18.90;56.40
24744;DHT22;12844;52.110;5.548;2024-02-23T00:06:34;18.90;56.50
24744;DHT22;12844;52.110;5.548;2024-02-23T00:08:59;18.90;56.50
24744;DHT22;12844;52.110;5.548;2024-02-23T00:11:25;18.90;57.20
24744;DHT22;12844;52.110;5.548;2024-02-23T00:13:51;18.80;56.50
24744;DHT22;12844;52.110;5.548;2024-02-23T00:16:16;18.80;56.40
24744;DHT22;12844;52.110;5.548;2024-02-23T00:18:42;18.80;56.40
24744;DHT22;12844;52.110;5.548;2024-02-23T00:21:08;18.80;56.40
24744;DHT22;12844;52.110;5.548;2024-02-23T00:23:34;18.80;56.40
24744;DHT22;12844;52.110;5.548;2024-02-23T00:25:59;18.80;57.10
24744;DHT22;12844;52.110;5.548;2024-02-23T00:28:25;18.70;56.40
24744;DHT22;12844;52.110;5.548;2024-02-23T00:30:50;18.70;56.40
24744;DHT22;12844;52.110;5.548;2024-02-23T00:33:16;18.70;56.40
24744;DHT22;12844;52.110;5.548;2024-02-23T00:35:42;18.70;56.30
24744;DHT22;12844;52.110;5.548;2024-02-23T00:38:07;18.70;56.30
24744;DHT22;12844;52.110;5.548;2024-02-23T00:40:33;18.70;57.00
24744;DHT22;12844;52.110;5.548;2024-02-23T00:42:59;18.60;56.30
24744;DHT22;12844;52.110;5.548;2024-02-23T00:45:26;18.60;56.80
24744;DHT22;12844;52.110;5.548;2024-02-23T00:47:52;18.70;56.30
24744;DHT22;12844;52.110;5.548;2024-02-23T00:50:17;18.60;56.30
24744;DHT22;12844;52.110;5.548;2024-02-23T00:52:43;18.70;56.30
24744;DHT22;12844;52.110;5.548;2024-02-23T00:55:09;18.60;56.10
24744;DHT22;12844;52.110;5.548;2024-02-23T00:57:35;18.60;56.60
24744;DHT22;12844;52.110;5.548;2024-02-23T01:00:01;18.60;55.90
24744;DHT22;12844;52.110;5.548;2024-02-23T01:02:30;18.60;55.80
24744;DHT22;12844;52.110;5.548;2024-02-23T01:04:56;18.60;55.90
24744;DHT22;12844;52.110;5.548;2024-02-23T01:07:24;18.60;55.90
24744;DHT22;12844;52.110;5.548;2024-02-23T01:09:49;18.60;56.10
24744;DHT22;12844;52.110;5.548;2024-02-23T01:12:15;18.60;56.10
24744;DHT22;12844;52.110;5.548;2024-02-23T01:14:41;18.60;55.90
24744;DHT22;12844;52.110;5.548;2024-02-23T01:17:06;18.60;55.80
24744;DHT22;12844;52.110;5.548;2024-02-23T01:19:32;18.60;55.40
24744;DHT22;12844;52.110;5.548;2024-02-23T01:21:57;18.60;55.40
24744;DHT22;12844;52.110;5.548;2024-02-23T01:24:26;18.60;55.40
24744;DHT22;12844;52.110;5.548;2024-02-23T01:26:56;18.60;55.50
24744;DHT22;12844;52.110;5.548;2024-02-23T01:29:22;18.60;56.30
24744;DHT22;12844;52.110;5.548;2024-02-23T01:31:48;18.50;55.60
24744;DHT22;12844;52.110;5.548;2024-02-23T01:34:14;18.60;55.70
24744;DHT22;12844;52.110;5.548;2024-02-23T01:36:40;18.50;55.60
24744;DHT22;12844;52.110;5.548;2024-02-23T01:39:05;18.50;55.60
24744;DHT22;12844;52.110;5.548;2024-02-23T01:41:32;18.50;56.20
24744;DHT22;12844;52.110;5.548;2024-02-23T01:43:58;18.50;55.60
24744;DHT22;12844;52.110;5.548;2024-02-23T01:46:24;18.50;55.60
24744;DHT22;12844;52.110;5.548;2024-02-23T01:48:50;18.50;55.50
24744;DHT22;12844;52.110;5.548;2024-02-23T01:51:16;18.50;55.60
24744;DHT22;12844;52.110;5.548;2024-02-23T01:53:42;18.50;55.60
24744;DHT22;12844;52.110;5.548;2024-02-23T01:56:09;18.50;55.60
24744;DHT22;12844;52.110;5.548;2024-02-23T01:58:37;18.50;55.60
24744;DHT22;12844;52.110;5.548;2024-02-23T02:01:03;18.50;55.60
24744;DHT22;12844;52.110;5.548;2024-02-23T02:03:29;18.50;55.40
24744;DHT22;12844;52.110;5.548;2024-02-23T02:05:55;18.50;55.90
24744;DHT22;12844;52.110;5.548;2024-02-23T02:08:25;18.50;55.40
24744;DHT22;12844;52.110;5.548;2024-02-23T02:10:50;18.50;55.40
24744;DHT22;12844;52.110;5.548;2024-02-23T02:13:16;18.50;55.30
24744;DHT22;12844;52.110;5.548;2024-02-23T02:15:41;18.40;55.90
24744;DHT22;12844;52.110;5.548;2024-02-23T02:18:09;18.40;55.30
24744;DHT22;12844;52.110;5.548;2024-02-23T02:20:36;18.40;55.20
24744;DHT22;12844;52.110;5.548;2024-02-23T02:23:02;18.40;55.20
24744;DHT22;12844;52.110;5.548;2024-02-23T02:25:28;18.40;55.30
24744;DHT22;12844;52.110;5.548;2024-02-23T02:27:54;18.40;55.20
24744;DHT22;12844;52.110;5.548;2024-02-23T02:30:20;18.40;55.30
24744;DHT22;12844;52.110;5.548;2024-02-23T02:32:45;18.40;55.30
24744;DHT22;12844;52.110;5.548;2024-02-23T02:35:12;18.40;55.30
24744;DHT22;12844;52.110;5.548;2024-02-23T02:37:38;18.40;55.30
24744;DHT22;12844;52.110;5.548;2024-02-23T02:40:04;18.30;55.40
24744;DHT22;12844;52.110;5.548;2024-02-23T02:42:30;18.30;55.50
24744;DHT22;12844;52.110;5.548;2024-02-23T02:44:56;18.30;55.30
24744;DHT22;12844;52.110;5.548;2024-02-23T02:47:22;18.40;55.30
24744;DHT22;12844;52.110;5.548;2024-02-23T02:49:48;18.40;55.30
24744;DHT22;12844;52.110;5.548;2024-02-23T02:52:14;18.40;55.10
24744;DHT22;12844;52.110;5.548;2024-02-23T02:54:40;18.40;55.00
24744;DHT22;12844;52.110;5.548;2024-02-23T02:57:05;18.30;55.00
24744;DHT22;12844;52.110;5.548;2024-02-23T02:59:34;18.30;54.80
24744;DHT22;12844;52.110;5.548;2024-02-23T03:02:01;18.30;54.80
24744;DHT22;12844;52.110;5.548;2024-02-23T03:04:26;18.30;54.70
24744;DHT22;12844;52.110;5.548;2024-02-23T03:06:52;18.30;54.80
24744;DHT22;12844;52.110;5.548;2024-02-23T03:09:17;18.30;54.70
24744;DHT22;12844;52.110;5.548;2024-02-23T03:11:43;18.30;54.70
24744;DHT22;12844;52.110;5.548;2024-02-23T03:14:09;18.30;54.70
24744;DHT22;12844;52.110;5.548;2024-02-23T03:16:35;18.30;55.30
24744;DHT22;12844;52.110;5.548;2024-02-23T03:19:02;18.30;54.70
24744;DHT22;12844;52.110;5.548;2024-02-23T03:21:28;18.20;54.60
24744;DHT22;12844;52.110;5.548;2024-02-23T03:23:54;18.20;54.50
24744;DHT22;12844;52.110;5.548;2024-02-23T03:26:19;18.20;54.50
24744;DHT22;12844;52.110;5.548;2024-02-23T03:28:45;18.20;54.50
24744;DHT22;12844;52.110;5.548;2024-02-23T03:31:11;18.20;55.10
24744;DHT22;12844;52.110;5.548;2024-02-23T03:33:36;18.20;54.50
24744;DHT22;12844;52.110;5.548;2024-02-23T03:36:03;18.20;54.50
24744;DHT22;12844;52.110;5.548;2024-02-23T03:38:29;18.20;54.40
24744;DHT22;12844;52.110;5.548;2024-02-23T03:40:55;18.20;54.30
24744;DHT22;12844;52.110;5.548;2024-02-23T03:43:21;18.20;54.40
24744;DHT22;12844;52.110;5.548;2024-02-23T03:45:47;18.10;54.30
24744;DHT22;12844;52.110;5.548;2024-02-23T03:48:13;18.10;54.30
24744;DHT22;12844;52.110;5.548;2024-02-23T03:50:38;18.10;54.30
24744;DHT22;12844;52.110;5.548;2024-02-23T03:53:04;18.10;54.30
24744;DHT22;12844;52.110;5.548;2024-02-23T03:55:29;18.10;54.30
24744;DHT22;12844;52.110;5.548;2024-02-23T03:57:55;18.10;54.30
24744;DHT22;12844;52.110;5.548;2024-02-23T04:00:21;18.10;54.20
24744;DHT22;12844;52.110;5.548;2024-02-23T04:02:48;18.10;54.20
24744;DHT22;12844;52.110;5.548;2024-02-23T04:05:14;18.10;54.10
24744;DHT22;12844;52.110;5.548;2024-02-23T04:07:40;18.10;54.20
24744;DHT22;12844;52.110;5.548;2024-02-23T04:10:06;18.10;54.10
24744;DHT22;12844;52.110;5.548;2024-02-23T04:12:32;18.10;54.10
24744;DHT22;12844;52.110;5.548;2024-02-23T04:14:57;18.10;54.10
24744;DHT22;12844;52.110;5.548;2024-02-23T04:17:23;18.10;54.20
24744;DHT22;12844;52.110;5.548;2024-02-23T04:19:48;18.10;54.20
24744;DHT22;12844;52.110;5.548;2024-02-23T04:22:14;18.10;54.10
24744;DHT22;12844;52.110;5.548;2024-02-23T04:24:40;18.10;54.20
24744;DHT22;12844;52.110;5.548;2024-02-23T04:27:07;18.00;54.20
24744;DHT22;12844;52.110;5.548;2024-02-23T04:29:33;18.00;54.20
24744;DHT22;12844;52.110;5.548;2024-02-23T04:32:02;18.00;54.20
24744;DHT22;12844;52.110;5.548;2024-02-23T04:34:28;18.00;54.80
24744;DHT22;12844;52.110;5.548;2024-02-23T04:36:54;18.00;54.10
24744;DHT22;12844;52.110;5.548;2024-02-23T04:39:20;18.00;54.10
24744;DHT22;12844;52.110;5.548;2024-02-23T04:41:46;18.00;54.10
24744;DHT22;12844;52.110;5.548;2024-02-23T04:44:11;18.00;54.10
24744;DHT22;12844;52.110;5.548;2024-02-23T04:46:37;18.00;54.10
24744;DHT22;12844;52.110;5.548;2024-02-23T04:49:03;18.00;54.10
24744;DHT22;12844;52.110;5.548;2024-02-23T04:51:28;18.00;54.10
24744;DHT22;12844;52.110;5.548;2024-02-23T04:53:54;18.00;54.10
24744;DHT22;12844;52.110;5.548;2024-02-23T04:56:20;17.90;54.10
24744;DHT22;12844;52.110;5.548;2024-02-23T04:58:46;17.90;54.10
24744;DHT22;12844;52.110;5.548;2024-02-23T05:01:12;17.90;54.10
24744;DHT22;12844;52.110;5.548;2024-02-23T05:03:37;17.90;54.10
24744;DHT22;12844;52.110;5.548;2024-02-23T05:06:03;17.90;54.10
24744;DHT22;12844;52.110;5.548;2024-02-23T05:08:29;17.90;54.10
24744;DHT22;12844;52.110;5.548;2024-02-23T05:10:56;17.90;54.10
24744;DHT22;12844;52.110;5.548;2024-02-23T05:13:22;17.90;54.10
24744;DHT22;12844;52.110;5.548;2024-02-23T05:15:47;17.90;54.10
24744;DHT22;12844;52.110;5.548;2024-02-23T05:18:13;17.90;54.00
24744;DHT22;12844;52.110;5.548;2024-02-23T05:20:39;17.90;54.10
24744;DHT22;12844;52.110;5.548;2024-02-23T05:23:05;17.90;54.10
24744;DHT22;12844;52.110;5.548;2024-02-23T05:25:30;17.80;54.00
24744;DHT22;12844;52.110;5.548;2024-02-23T05:27:56;17.80;54.10
24744;DHT22;12844;52.110;5.548;2024-02-23T05:30:21;17.80;54.10
24744;DHT22;12844;52.110;5.548;2024-02-23T05:32:47;17.80;54.00
24744;DHT22;12844;52.110;5.548;2024-02-23T05:35:13;17.80;54.60
24744;DHT22;12844;52.110;5.548;2024-02-23T05:37:41;17.90;54.10
24744;DHT22;12844;52.110;5.548;2024-02-23T05:40:07;17.80;54.00
24744;DHT22;12844;52.110;5.548;2024-02-23T05:42:36;17.80;54.10
24744;DHT22;12844;52.110;5.548;2024-02-23T05:45:02;17.90;54.70
24744;DHT22;12844;52.110;5.548;2024-02-23T05:47:32;17.90;54.10
24744;DHT22;12844;52.110;5.548;2024-02-23T05:49:58;17.80;54.00
24744;DHT22;12844;52.110;5.548;2024-02-23T05:52:23;17.80;54.00
24744;DHT22;12844;52.110;5.548;2024-02-23T05:54:49;17.80;54.00
24744;DHT22;12844;52.110;5.548;2024-02-23T05:57:15;17.70;54.70
24744;DHT22;12844;52.110;5.548;2024-02-23T05:59:40;17.70;54.10
24744;DHT22;12844;52.110;5.548;2024-02-23T06:02:06;17.70;54.70
24744;DHT22;12844;52.110;5.548;2024-02-23T06:04:31;17.80;54.10
24744;DHT22;12844;52.110;5.548;2024-02-23T06:06:57;17.80;54.10
24744;DHT22;12844;52.110;5.548;2024-02-23T06:09:22;17.80;54.10
24744;DHT22;12844;52.110;5.548;2024-02-23T06:11:48;17.80;54.10
24744;DHT22;12844;52.110;5.548;2024-02-23T06:14:14;17.70;54.00
24744;DHT22;12844;52.110;5.548;2024-02-23T06:16:40;17.70;54.00
24744;DHT22;12844;52.110;5.548;2024-02-23T06:19:06;17.70;54.00
24744;DHT22;12844;52.110;5.548;2024-02-23T06:21:31;17.70;54.00
24744;DHT22;12844;52.110;5.548;2024-02-23T06:23:58;17.70;54.00
24744;DHT22;12844;52.110;5.548;2024-02-23T06:26:23;17.70;54.60
24744;DHT22;12844;52.110;5.548;2024-02-23T06:28:49;17.70;54.00
24744;DHT22;12844;52.110;5.548;2024-02-23T06:31:15;17.70;54.00
24744;DHT22;12844;52.110;5.548;2024-02-23T06:33:40;17.70;54.00
24744;DHT22;12844;52.110;5.548;2024-02-23T06:36:06;17.70;53.90
24744;DHT22;12844;52.110;5.548;2024-02-23T06:38:33;17.70;54.00
24744;DHT22;12844;52.110;5.548;2024-02-23T06:40:59;17.70;53.90
24744;DHT22;12844;52.110;5.548;2024-02-23T06:43:24;17.70;54.00
24744;DHT22;12844;52.110;5.548;2024-02-23T06:45:50;17.60;54.00
24744;DHT22;12844;52.110;5.548;2024-02-23T06:48:16;17.70;54.00
24744;DHT22;12844;52.110;5.548;2024-02-23T06:50:42;17.60;54.00
24744;DHT22;12844;52.110;5.548;2024-02-23T06:53:07;17.60;54.00
24744;DHT22;12844;52.110;5.548;2024-02-23T06:55:34;17.60;54.00
24744;DHT22;12844;52.110;5.548;2024-02-23T06:58:00;17.60;54.00
24744;DHT22;12844;52.110;5.548;2024-02-23T07:00:26;17.60;54.00
24744;DHT22;12844;52.110;5.548;2024-02-23T07:02:52;17.60;54.00
24744;DHT22;12844;52.110;5.548;2024-02-23T07:05:17;17.60;54.00
24744;DHT22;12844;52.110;5.548;2024-02-23T07:07:43;17.60;54.10
24744;DHT22;12844;52.110;5.548;2024-02-23T07:10:09;17.60;54.00
24744;DHT22;12844;52.110;5.548;2024-02-23T07:12:36;17.60;54.70
24744;DHT22;12844;52.110;5.548;2024-02-23T07:15:02;17.60;54.00
24744;DHT22;12844;52.110;5.548;2024-02-23T07:17:28;17.60;54.00
24744;DHT22;12844;52.110;5.548;2024-02-23T07:19:53;17.60;54.00
24744;DHT22;12844;52.110;5.548;2024-02-23T07:22:19;17.60;54.00
24744;DHT22;12844;52.110;5.548;2024-02-23T07:24:46;17.60;54.00
24744;DHT22;12844;52.110;5.548;2024-02-23T07:27:11;17.60;54.70
24744;DHT22;12844;52.110;5.548;2024-02-23T07:29:37;17.60;54.00
24744;DHT22;12844;52.110;5.548;2024-02-23T07:32:03;17.60;54.00
24744;DHT22;12844;52.110;5.548;2024-02-23T07:34:30;17.60;53.90
24744;DHT22;12844;52.110;5.548;2024-02-23T07:36:56;17.60;53.90
24744;DHT22;12844;52.110;5.548;2024-02-23T07:39:22;17.60;53.90
24744;DHT22;12844;52.110;5.548;2024-02-23T07:41:48;17.60;53.90
24744;DHT22;12844;52.110;5.548;2024-02-23T07:44:13;17.60;53.90
24744;DHT22;12844;52.110;5.548;2024-02-23T07:46:39;17.60;53.80
24744;DHT22;12844;52.110;5.548;2024-02-23T07:49:05;17.60;53.80
24744;DHT22;12844;52.110;5.548;2024-02-23T07:51:35;17.60;53.80
24744;DHT22;12844;52.110;5.548;2024-02-23T07:54:01;17.60;53.80
24744;DHT22;12844;52.110;5.548;2024-02-23T07:56:26;17.60;53.90
24744;DHT22;12844;52.110;5.548;2024-02-23T07:58:53;17.50;53.80
24744;DHT22;12844;52.110;5.548;2024-02-23T08:01:19;17.50;53.80
24744;DHT22;12844;52.110;5.548;2024-02-23T08:03:44;17.60;53.80
24744;DHT22;12844;52.110;5.548;2024-02-23T08:06:10;17.50;53.80
24744;DHT22;12844;52.110;5.548;2024-02-23T08:08:38;17.50;54.50
24744;DHT22;12844;52.110;5.548;2024-02-23T08:11:04;17.50;53.80
24744;DHT22;12844;52.110;5.548;2024-02-23T08:13:30;17.50;53.90
24744;DHT22;12844;52.110;5.548;2024-02-23T08:15:58;17.50;54.50
24744;DHT22;12844;52.110;5.548;2024-02-23T08:18:24;17.60;54.00
24744;DHT22;12844;52.110;5.548;2024-02-23T08:20:50;17.60;54.00
24744;DHT22;12844;52.110;5.548;2024-02-23T08:23:15;17.50;53.80
24744;DHT22;12844;52.110;5.548;2024-02-23T08:25:41;17.60;54.20
24744;DHT22;12844;52.110;5.548;2024-02-23T08:28:07;17.60;54.70
24744;DHT22;12844;52.110;5.548;2024-02-23T08:30:32;17.60;55.40
24744;DHT22;12844;52.110;5.548;2024-02-23T08:32:58;17.70;54.90
24744;DHT22;12844;52.110;5.548;2024-02-23T08:35:25;17.70;54.90
24744;DHT22;12844;52.110;5.548;2024-02-23T08:37:50;17.80;54.90
24744;DHT22;12844;52.110;5.548;2024-02-23T08:40:16;17.90;55.00
24744;DHT22;12844;52.110;5.548;2024-02-23T08:42:42;18.00;54.90
24744;DHT22;12844;52.110;5.548;2024-02-23T08:45:08;18.10;55.60
24744;DHT22;12844;52.110;5.548;2024-02-23T08:47:35;18.20;55.00
24744;DHT22;12844;52.110;5.548;2024-02-23T08:50:01;18.30;55.00
24744;DHT22;12844;52.110;5.548;2024-02-23T08:52:28;18.40;55.00
24744;DHT22;12844;52.110;5.548;2024-02-23T08:54:53;18.40;54.90
24744;DHT22;12844;52.110;5.548;2024-02-23T08:57:19;18.50;54.90
24744;DHT22;12844;52.110;5.548;2024-02-23T08:59:45;18.60;55.00
24744;DHT22;12844;52.110;5.548;2024-02-23T09:02:11;18.70;54.90
24744;DHT22;12844;52.110;5.548;2024-02-23T09:04:37;18.80;54.80
24744;DHT22;12844;52.110;5.548;2024-02-23T09:07:03;18.80;54.80
24744;DHT22;12844;52.110;5.548;2024-02-23T09:09:28;18.80;54.80
24744;DHT22;12844;52.110;5.548;2024-02-23T09:11:54;18.80;54.90
24744;DHT22;12844;52.110;5.548;2024-02-23T09:14:20;18.90;54.90
24744;DHT22;12844;52.110;5.548;2024-02-23T09:16:45;18.90;54.80
24744;DHT22;12844;52.110;5.548;2024-02-23T09:19:16;18.90;54.70
24744;DHT22;12844;52.110;5.548;2024-02-23T09:21:42;19.00;54.60
24744;DHT22;12844;52.110;5.548;2024-02-23T09:24:08;19.00;54.60
24744;DHT22;12844;52.110;5.548;2024-02-23T09:26:33;19.00;54.50
24744;DHT22;12844;52.110;5.548;2024-02-23T09:28:59;19.00;54.50
24744;DHT22;12844;52.110;5.548;2024-02-23T09:31:24;19.00;54.40
24744;DHT22;12844;52.110;5.548;2024-02-23T09:33:51;19.00;54.40
24744;DHT22;12844;52.110;5.548;2024-02-23T09:36:17;19.00;54.40
24744;DHT22;12844;52.110;5.548;2024-02-23T09:38:43;18.90;54.40
24744;DHT22;12844;52.110;5.548;2024-02-23T09:41:17;18.90;54.40
24744;DHT22;12844;52.110;5.548;2024-02-23T09:43:44;18.90;54.40
24744;DHT22;12844;52.110;5.548;2024-02-23T09:46:12;18.90;54.50
24744;DHT22;12844;52.110;5.548;2024-02-23T09:48:38;18.90;54.60
24744;DHT22;12844;52.110;5.548;2024-02-23T09:51:05;18.80;54.50
24744;DHT22;12844;52.110;5.548;2024-02-23T09:53:33;18.80;54.60
24744;DHT22;12844;52.110;5.548;2024-02-23T09:55:59;18.80;54.60
24744;DHT22;12844;52.110;5.548;2024-02-23T09:58:26;18.80;54.50
24744;DHT22;12844;52.110;5.548;2024-02-23T10:00:56;18.80;55.10
24744;DHT22;12844;52.110;5.548;2024-02-23T10:03:24;18.70;55.00
24744;DHT22;12844;52.110;5.548;2024-02-23T10:05:51;18.70;54.60
24744;DHT22;12844;52.110;5.548;2024-02-23T10:08:17;18.70;54.70
24744;DHT22;12844;52.110;5.548;2024-02-23T10:10:46;18.70;54.80
24744;DHT22;12844;52.110;5.548;2024-02-23T10:13:12;18.70;54.50
24744;DHT22;12844;52.110;5.548;2024-02-23T10:15:37;18.70;54.50
24744;DHT22;12844;52.110;5.548;2024-02-23T10:18:04;18.70;55.10
24744;DHT22;12844;52.110;5.548;2024-02-23T10:20:30;18.70;54.50
24744;DHT22;12844;52.110;5.548;2024-02-23T10:22:56;18.70;54.70
24744;DHT22;12844;52.110;5.548;2024-02-23T10:25:22;18.70;54.80
24744;DHT22;12844;52.110;5.548;2024-02-23T10:27:48;18.70;55.60
24744;DHT22;12844;52.110;5.548;2024-02-23T10:30:14;18.80;55.60
24744;DHT22;12844;52.110;5.548;2024-02-23T10:32:41;18.80;54.60
24744;DHT22;12844;52.110;5.548;2024-02-23T10:35:13;18.80;54.70
24744;DHT22;12844;52.110;5.548;2024-02-23T10:37:42;18.80;54.50
24744;DHT22;12844;52.110;5.548;2024-02-23T10:40:11;18.80;54.50
24744;DHT22;12844;52.110;5.548;2024-02-23T10:42:38;18.80;54.40
24744;DHT22;12844;52.110;5.548;2024-02-23T10:45:05;18.80;54.30
24744;DHT22;12844;52.110;5.548;2024-02-23T10:47:32;18.80;54.30
24744;DHT22;12844;52.110;5.548;2024-02-23T10:50:01;18.70;54.20
24744;DHT22;12844;52.110;5.548;2024-02-23T10:52:28;18.70;54.40
24744;DHT22;12844;52.110;5.548;2024-02-23T10:54:54;18.70;54.20
24744;DHT22;12844;52.110;5.548;2024-02-23T10:57:21;18.60;54.20
24744;DHT22;12844;52.110;5.548;2024-02-23T10:59:47;18.60;54.40
24744;DHT22;12844;52.110;5.548;2024-02-23T11:02:18;18.70;54.40
24744;DHT22;12844;52.110;5.548;2024-02-23T11:04:48;18.60;54.50
24744;DHT22;12844;52.110;5.548;2024-02-23T11:07:21;18.50;54.40
24744;DHT22;12844;52.110;5.548;2024-02-23T11:09:59;18.50;54.70
24744;DHT22;12844;52.110;5.548;2024-02-23T11:12:26;18.50;54.60
24744;DHT22;12844;52.110;5.548;2024-02-23T11:14:58;18.60;54.50
24744;DHT22;12844;52.110;5.548;2024-02-23T11:17:26;18.50;54.30
24744;DHT22;12844;52.110;5.548;2024-02-23T11:19:54;18.50;54.30
24744;DHT22;12844;52.110;5.548;2024-02-23T11:22:24;18.60;54.30
24744;DHT22;12844;52.110;5.548;2024-02-23T11:24:51;18.60;54.10
24744;DHT22;12844;52.110;5.548;2024-02-23T11:27:17;18.70;53.90
24744;DHT22;12844;52.110;5.548;2024-02-23T11:29:45;18.60;53.70
24744;DHT22;12844;52.110;5.548;2024-02-23T11:32:15;18.70;53.80
24744;DHT22;12844;52.110;5.548;2024-02-23T11:34:41;18.70;54.30
24744;DHT22;12844;52.110;5.548;2024-02-23T11:37:10;18.70;54.30
24744;DHT22;12844;52.110;5.548;2024-02-23T11:39:39;18.70;53.70
24744;DHT22;12844;52.110;5.548;2024-02-23T11:42:06;18.70;53.60
24744;DHT22;12844;52.110;5.548;2024-02-23T11:44:32;18.70;53.70
24744;DHT22;12844;52.110;5.548;2024-02-23T11:46:58;18.70;54.20
24744;DHT22;12844;52.110;5.548;2024-02-23T11:49:31;18.80;53.60
24744;DHT22;12844;52.110;5.548;2024-02-23T11:51:57;18.80;53.50
24744;DHT22;12844;52.110;5.548;2024-02-23T11:54:23;18.80;53.30
24744;DHT22;12844;52.110;5.548;2024-02-23T11:56:49;18.80;53.30
24744;DHT22;12844;52.110;5.548;2024-02-23T11:59:19;18.80;53.20
24744;DHT22;12844;52.110;5.548;2024-02-23T12:01:46;18.80;53.40
24744;DHT22;12844;52.110;5.548;2024-02-23T12:04:13;18.70;53.30
24744;DHT22;12844;52.110;5.548;2024-02-23T12:06:40;18.60;53.30
24744;DHT22;12844;52.110;5.548;2024-02-23T12:09:07;18.60;53.40
24744;DHT22;12844;52.110;5.548;2024-02-23T12:11:33;18.60;53.50
24744;DHT22;12844;52.110;5.548;2024-02-23T12:14:00;18.50;53.40
24744;DHT22;12844;52.110;5.548;2024-02-23T12:16:27;18.50;53.50
24744;DHT22;12844;52.110;5.548;2024-02-23T12:18:54;18.50;53.40
24744;DHT22;12844;52.110;5.548;2024-02-23T12:21:23;18.50;53.40
24744;DHT22;12844;52.110;5.548;2024-02-23T12:23:50;18.50;53.60
24744;DHT22;12844;52.110;5.548;2024-02-23T12:26:17;18.50;53.50
24744;DHT22;12844;52.110;5.548;2024-02-23T12:28:44;18.50;53.40
24744;DHT22;12844;52.110;5.548;2024-02-23T12:31:10;18.50;53.40
24744;DHT22;12844;52.110;5.548;2024-02-23T12:33:40;18.50;53.90
24744;DHT22;12844;52.110;5.548;2024-02-23T12:36:07;18.50;53.30
24744;DHT22;12844;52.110;5.548;2024-02-23T12:38:33;18.50;53.50
24744;DHT22;12844;52.110;5.548;2024-02-23T12:41:00;18.50;53.40
24744;DHT22;12844;52.110;5.548;2024-02-23T12:43:26;18.50;53.40
24744;DHT22;12844;52.110;5.548;2024-02-23T12:45:53;18.40;53.40
24744;DHT22;12844;52.110;5.548;2024-02-23T12:48:19;18.40;53.50
24744;DHT22;12844;52.110;5.548;2024-02-23T12:50:46;18.50;53.50
24744;DHT22;12844;52.110;5.548;2024-02-23T12:55:57;18.40;53.60
24744;DHT22;12844;52.110;5.548;2024-02-23T12:58:23;18.40;53.60
24744;DHT22;12844;52.110;5.548;2024-02-23T13:00:48;18.40;53.70
24744;DHT22;12844;52.110;5.548;2024-02-23T13:03:14;18.10;54.20
24744;DHT22;12844;52.110;5.548;2024-02-23T13:05:39;17.80;54.60
24744;DHT22;12844;52.110;5.548;2024-02-23T13:08:05;17.70;54.90
24744;DHT22;12844;52.110;5.548;2024-02-23T13:10:31;17.80;54.90
24744;DHT22;12844;52.110;5.548;2024-02-23T13:12:57;17.80;54.90
24744;DHT22;12844;52.110;5.548;2024-02-23T13:15:23;17.90;54.90
24744;DHT22;12844;52.110;5.548;2024-02-23T13:17:48;18.00;54.70
24744;DHT22;12844;52.110;5.548;2024-02-23T13:20:14;18.20;54.30
24744;DHT22;12844;52.110;5.548;2024-02-23T13:22:39;18.30;54.40
24744;DHT22;12844;52.110;5.548;2024-02-23T13:25:05;18.30;54.10
24744;DHT22;12844;52.110;5.548;2024-02-23T13:27:31;18.40;54.20
24744;DHT22;12844;52.110;5.548;2024-02-23T13:29:57;18.40;54.60
24744;DHT22;12844;52.110;5.548;2024-02-23T13:32:22;18.50;54.70
24744;DHT22;12844;52.110;5.548;2024-02-23T13:34:48;18.50;54.70
24744;DHT22;12844;52.110;5.548;2024-02-23T13:37:17;18.50;54.10
24744;DHT22;12844;52.110;5.548;2024-02-23T13:39:43;18.50;54.80
24744;DHT22;12844;52.110;5.548;2024-02-23T13:42:09;18.50;54.40
24744;DHT22;12844;52.110;5.548;2024-02-23T13:44:35;18.60;54.70
24744;DHT22;12844;52.110;5.548;2024-02-23T13:47:01;18.60;54.80
24744;DHT22;12844;52.110;5.548;2024-02-23T13:49:27;18.60;54.80
24744;DHT22;12844;52.110;5.548;2024-02-23T13:51:53;18.70;55.00
24744;DHT22;12844;52.110;5.548;2024-02-23T13:54:19;18.70;55.10
24744;DHT22;12844;52.110;5.548;2024-02-23T13:56:44;18.80;55.10
24744;DHT22;12844;52.110;5.548;2024-02-23T13:59:10;18.90;55.30
24744;DHT22;12844;52.110;5.548;2024-02-23T14:01:35;19.00;55.10
24744;DHT22;12844;52.110;5.548;2024-02-23T14:04:06;19.00;55.00
24744;DHT22;12844;52.110;5.548;2024-02-23T14:06:32;19.10;54.90
24744;DHT22;12844;52.110;5.548;2024-02-23T14:08:58;19.10;54.80
24744;DHT22;12844;52.110;5.548;2024-02-23T14:11:24;19.20;54.80
24744;DHT22;12844;52.110;5.548;2024-02-23T14:13:49;19.20;54.80
24744;DHT22;12844;52.110;5.548;2024-02-23T14:16:16;19.20;54.80
24744;DHT22;12844;52.110;5.548;2024-02-23T14:18:41;19.20;54.80
24744;DHT22;12844;52.110;5.548;2024-02-23T14:21:09;19.20;54.80
24744;DHT22;12844;52.110;5.548;2024-02-23T14:23:36;19.10;54.80
24744;DHT22;12844;52.110;5.548;2024-02-23T14:26:02;19.10;54.80
24744;DHT22;12844;52.110;5.548;2024-02-23T14:28:27;19.10;54.90
24744;DHT22;12844;52.110;5.548;2024-02-23T14:30:53;19.10;55.00
24744;DHT22;12844;52.110;5.548;2024-02-23T14:33:19;19.10;55.00
24744;DHT22;12844;52.110;5.548;2024-02-23T14:35:45;19.10;55.00
24744;DHT22;12844;52.110;5.548;2024-02-23T14:38:11;19.10;55.00
24744;DHT22;12844;52.110;5.548;2024-02-23T14:40:37;19.10;54.70
24744;DHT22;12844;52.110;5.548;2024-02-23T14:43:03;19.10;54.70
24744;DHT22;12844;52.110;5.548;2024-02-23T14:45:30;19.10;54.50
24744;DHT22;12844;52.110;5.548;2024-02-23T14:47:55;19.10;54.60
24744;DHT22;12844;52.110;5.548;2024-02-23T14:50:21;19.10;54.50
24744;DHT22;12844;52.110;5.548;2024-02-23T14:52:46;19.00;54.30
24744;DHT22;12844;52.110;5.548;2024-02-23T14:55:12;19.00;54.50
24744;DHT22;12844;52.110;5.548;2024-02-23T14:57:38;19.00;54.30
24744;DHT22;12844;52.110;5.548;2024-02-23T15:00:05;19.00;55.00
24744;DHT22;12844;52.110;5.548;2024-02-23T15:02:31;19.00;54.30
24744;DHT22;12844;52.110;5.548;2024-02-23T15:04:56;19.00;54.30
24744;DHT22;12844;52.110;5.548;2024-02-23T15:07:22;19.00;54.30
24744;DHT22;12844;52.110;5.548;2024-02-23T15:09:47;19.00;54.30
24744;DHT22;12844;52.110;5.548;2024-02-23T15:12:13;19.00;54.30
24744;DHT22;12844;52.110;5.548;2024-02-23T15:14:39;18.90;54.10
24744;DHT22;12844;52.110;5.548;2024-02-23T15:17:05;18.90;54.10
24744;DHT22;12844;52.110;5.548;2024-02-23T15:19:30;18.90;54.70
24744;DHT22;12844;52.110;5.548;2024-02-23T15:21:56;18.90;54.00
24744;DHT22;12844;52.110;5.548;2024-02-23T15:24:22;18.90;54.00
24744;DHT22;12844;52.110;5.548;2024-02-23T15:26:50;18.90;53.90